Time;durP1;ratioP1;P1;durP2;ratioP2;P2;SDS_P1;SDS_P2;PMS_P1;PMS_P2;Temp;Humidity;BMP_temperature;BMP_pressure;BME280_temperature;BME280_humidity;BME280_pressure;Samples;Min_cycle;Max_cycle;Signal;HPM_P1;HPM_P2
2023/09/13 00:00:59;;;;;;;;;;;;;;;18.89;100.00;101241.53;5045165;28;20015;-72
2023/09/13 00:03:24;;;;;;;;;;;;;;;18.92;100.00;101245.75;5045797;28;19975;-72
2023/09/13 00:05:49;;;;;;;;;;;;;;;18.92;100.00;101239.50;5047637;28;20019;-72
2023/09/13 00:08:15;;;;;;;;;;;;;;;18.92;100.00;101244.94;5040583;28;19927;-72
2023/09/13 00:10:41;;;;;;;;;;;;;;;18.92;100.00;101242.22;5041738;28;20012;-72
2023/09/13 00:13:06;;;;;;;;;;;;;;;18.84;100.00;101226.69;5040769;28;20545;-72
2023/09/13 00:15:31;;;;;;;;;;;;;;;18.92;100.00;101232.16;5044071;28;19955;-72
2023/09/13 00:17:56;;;;;;;;;;;;;;;18.88;100.00;101233.50;5043726;28;19949;-72
2023/09/13 00:20:21;;;;;;;;;;;;;;;18.79;100.00;101224.47;5040359;28;19961;-72
2023/09/13 00:22:47;;;;;;;;;;;;;;;18.81;100.00;101232.44;5046457;28;19925;-72
2023/09/13 00:25:12;;;;;;;;;;;;;;;18.80;100.00;101230.78;5045861;28;20572;-72
2023/09/13 00:27:37;;;;;;;;;;;;;;;18.80;100.00;101236.22;5045608;28;19924;-72
2023/09/13 00:30:02;;;;;;;;;;;;;;;18.77;100.00;101231.09;5048908;28;20393;-72
2023/09/13 00:32:28;;;;;;;;;;;;;;;18.72;100.00;101235.16;5047312;28;19920;-72
2023/09/13 00:34:53;;;;;;;;;;;;;;;18.73;100.00;101238.72;5046892;28;19921;-72
2023/09/13 00:37:18;;;;;;;;;;;;;;;18.72;100.00;101245.19;5048238;28;20264;-72
2023/09/13 00:39:43;;;;;;;;;;;;;;;18.69;100.00;101238.22;5049624;28;20066;-72
2023/09/13 00:42:08;;;;;;;;;;;;;;;18.64;100.00;101234.28;5053288;28;19920;-72
2023/09/13 00:44:34;;;;;;;;;;;;;;;18.61;100.00;101243.59;5049063;28;20190;-72
2023/09/13 00:46:59;;;;;;;;;;;;;;;18.58;100.00;101243.91;5045197;28;20260;-72
2023/09/13 00:49:24;;;;;;;;;;;;;;;18.54;100.00;101250.72;5049268;28;20295;-72
2023/09/13 00:51:50;;;;;;;;;;;;;;;18.55;100.00;101245.09;5046876;28;20329;-72
2023/09/13 00:54:15;;;;;;;;;;;;;;;18.49;100.00;101239.47;5052375;28;19924;-72
2023/09/13 00:56:41;;;;;;;;;;;;;;;18.43;100.00;101236.38;5049833;28;19955;-72
2023/09/13 00:59:08;;;;;;;;;;;;;;;18.46;100.00;101243.34;5047798;28;19962;-72
2023/09/13 01:01:34;;;;;;;;;;;;;;;18.44;100.00;101242.66;5031420;28;20330;-72
2023/09/13 01:03:59;;;;;;;;;;;;;;;18.46;100.00;101240.63;5050034;28;20378;-72
2023/09/13 01:06:24;;;;;;;;;;;;;;;18.49;100.00;101244.91;5047578;28;19931;-72
2023/09/13 01:08:50;;;;;;;;;;;;;;;18.52;100.00;101240.00;5048799;28;19928;-72
2023/09/13 01:11:15;;;;;;;;;;;;;;;18.56;100.00;101240.50;5051412;28;19991;-72
2023/09/13 01:13:40;;;;;;;;;;;;;;;18.55;100.00;101241.53;5047087;28;19966;-73
2023/09/13 01:16:18;;;;;;;;;;;;;;;18.58;100.00;101236.63;5045073;28;19925;-72
2023/09/13 01:18:47;;;;;;;;;;;;;;;18.65;100.00;101234.09;5048807;28;19931;-73
2023/09/13 01:21:12;;;;;;;;;;;;;;;18.71;100.00;101240.75;5044899;28;20617;-72
2023/09/13 01:23:55;;;;;;;;;;;;;;;18.78;100.00;101246.41;5045780;28;19928;-72
2023/09/13 01:26:31;;;;;;;;;;;;;;;18.79;100.00;101240.78;5046386;28;20097;-73
2023/09/13 01:28:56;;;;;;;;;;;;;;;18.83;100.00;101242.16;5049209;28;19920;-72
2023/09/13 01:31:22;;;;;;;;;;;;;;;18.82;100.00;101235.03;5044823;28;19924;-73
2023/09/13 01:33:47;;;;;;;;;;;;;;;18.82;100.00;101239.59;5049788;28;19927;-73
2023/09/13 01:36:12;;;;;;;;;;;;;;;18.77;100.00;101234.66;5049478;28;19927;-72
2023/09/13 01:38:38;;;;;;;;;;;;;;;18.73;100.00;101244.16;5045913;28;19959;-73
2023/09/13 01:41:04;;;;;;;;;;;;;;;18.76;100.00;101249.28;5044872;28;19924;-73
2023/09/13 01:43:30;;;;;;;;;;;;;;;18.78;100.00;101249.13;5046208;28;19969;-73
2023/09/13 01:45:55;;;;;;;;;;;;;;;18.76;100.00;101245.72;5042408;28;19928;-73
2023/09/13 01:48:20;;;;;;;;;;;;;;;18.71;100.00;101243.47;5036194;28;20496;-73
2023/09/13 01:50:46;;;;;;;;;;;;;;;18.73;100.00;101241.44;5051389;28;20343;-73
2023/09/13 01:53:11;;;;;;;;;;;;;;;18.78;100.00;101251.84;5035951;28;20403;-73
2023/09/13 01:55:36;;;;;;;;;;;;;;;18.80;100.00;101257.97;5028294;28;19928;-73
2023/09/13 01:58:01;;;;;;;;;;;;;;;18.83;100.00;101255.78;5034720;28;19982;-73
2023/09/13 02:00:27;;;;;;;;;;;;;;;18.84;100.00;101253.88;5029750;28;20003;-73
2023/09/13 02:02:52;;;;;;;;;;;;;;;18.80;100.00;101266.13;5046087;28;19984;-73
2023/09/13 02:05:17;;;;;;;;;;;;;;;18.83;100.00;101268.50;5036764;28;19924;-73
2023/09/13 02:07:42;;;;;;;;;;;;;;;18.87;100.00;101264.44;5053355;28;20607;-73
2023/09/13 02:10:08;;;;;;;;;;;;;;;18.86;100.00;101266.34;5048686;28;19925;-73
2023/09/13 02:12:33;;;;;;;;;;;;;;;18.89;100.00;101268.72;5041208;28;19952;-73
2023/09/13 02:14:58;;;;;;;;;;;;;;;18.83;100.00;101265.78;5051726;28;19962;-72
2023/09/13 02:17:23;;;;;;;;;;;;;;;18.92;100.00;101266.69;5045750;28;19920;-73
2023/09/13 02:19:49;;;;;;;;;;;;;;;18.87;100.00;101268.03;5031764;28;19962;-73
2023/09/13 02:22:14;;;;;;;;;;;;;;;18.94;100.00;101268.22;5045372;28;20093;-73
2023/09/13 02:24:39;;;;;;;;;;;;;;;18.88;100.00;101266.16;5052276;28;19920;-73
2023/09/13 02:27:05;;;;;;;;;;;;;;;18.91;100.00;101274.00;5031573;28;20058;-73
2023/09/13 02:29:30;;;;;;;;;;;;;;;18.97;100.00;101277.94;5050939;28;19956;-73
2023/09/13 02:31:56;;;;;;;;;;;;;;;19.01;100.00;101269.31;5044586;28;20020;-73
2023/09/13 02:34:21;;;;;;;;;;;;;;;19.03;100.00;101271.84;5045748;28;20003;-73
2023/09/13 02:36:47;;;;;;;;;;;;;;;18.96;100.00;101265.34;5050308;28;21003;-73
2023/09/13 02:39:31;;;;;;;;;;;;;;;18.85;100.00;101266.47;5050307;28;19925;-72
2023/09/13 02:41:57;;;;;;;;;;;;;;;18.74;100.00;101278.50;5049232;28;20467;-73
2023/09/13 02:44:22;;;;;;;;;;;;;;;18.79;100.00;101286.19;5032639;28;19981;-73
2023/09/13 02:46:47;;;;;;;;;;;;;;;18.81;100.00;101278.69;5030223;28;20285;-72
2023/09/13 02:49:12;;;;;;;;;;;;;;;18.46;100.00;101256.09;5047931;28;19920;-71
2023/09/13 02:51:38;;;;;;;;;;;;;;;18.69;100.00;101289.00;5049375;28;20287;-71
2023/09/13 02:54:04;;;;;;;;;;;;;;;18.62;100.00;101280.66;5049278;28;20341;-72
2023/09/13 02:56:29;;;;;;;;;;;;;;;18.67;100.00;101278.31;5048691;28;19921;-72
2023/09/13 02:58:54;;;;;;;;;;;;;;;18.71;100.00;101287.84;5047987;28;19947;-73
2023/09/13 03:01:21;;;;;;;;;;;;;;;18.74;100.00;101275.78;5033248;28;20204;-73
2023/09/13 03:03:46;;;;;;;;;;;;;;;18.74;100.00;101283.94;5044257;28;20297;-73
2023/09/13 03:06:18;;;;;;;;;;;;;;;18.77;100.00;101288.22;5049697;28;21455;-72
2023/09/13 03:08:43;;;;;;;;;;;;;;;18.71;100.00;101281.53;5045420;28;19920;-72
2023/09/13 03:11:12;;;;;;;;;;;;;;;18.67;100.00;101286.47;5045779;28;21095;-72
2023/09/13 03:13:38;;;;;;;;;;;;;;;18.64;100.00;101294.09;5045304;28;20312;-72
2023/09/13 03:16:09;;;;;;;;;;;;;;;18.67;100.00;101293.78;5030420;28;19920;-72
2023/09/13 03:18:34;;;;;;;;;;;;;;;18.65;100.00;101295.81;5031631;28;19966;-73
2023/09/13 03:21:00;;;;;;;;;;;;;;;18.64;100.00;101299.53;5046315;28;20248;-73
2023/09/13 03:23:25;;;;;;;;;;;;;;;18.62;100.00;101287.97;5050711;28;19924;-72
2023/09/13 03:25:50;;;;;;;;;;;;;;;18.66;100.00;101284.75;5046781;28;19926;-72
2023/09/13 03:28:15;;;;;;;;;;;;;;;18.66;100.00;101290.19;5043929;28;20005;-72
2023/09/13 03:30:41;;;;;;;;;;;;;;;18.64;100.00;101291.38;5032654;28;19924;-72
2023/09/13 03:33:06;;;;;;;;;;;;;;;18.62;100.00;101291.53;5047808;28;19924;-72
2023/09/13 03:35:31;;;;;;;;;;;;;;;18.60;100.00;101293.56;5043300;28;19920;-72
2023/09/13 03:37:56;;;;;;;;;;;;;;;18.59;100.00;101302.72;5046177;28;20317;-72
2023/09/13 03:40:21;;;;;;;;;;;;;;;18.57;100.00;101296.59;5045695;28;20014;-72
2023/09/13 03:42:47;;;;;;;;;;;;;;;18.56;100.00;101301.19;5046144;28;19928;-72
2023/09/13 03:45:12;;;;;;;;;;;;;;;18.56;100.00;101301.19;5042419;28;19925;-72
2023/09/13 03:47:37;;;;;;;;;;;;;;;18.59;100.00;101302.72;5043783;28;19920;-72
2023/09/13 03:50:02;;;;;;;;;;;;;;;18.62;100.00;101309.72;5045999;28;20274;-71
2023/09/13 03:52:28;;;;;;;;;;;;;;;18.62;100.00;101309.72;5027733;28;20497;-72
2023/09/13 03:54:53;;;;;;;;;;;;;;;18.59;100.00;101305.44;5043355;28;20576;-72
2023/09/13 03:57:18;;;;;;;;;;;;;;;18.52;100.00;101307.97;5046949;28;20288;-71
2023/09/13 03:59:44;;;;;;;;;;;;;;;18.38;100.00;101306.69;5055118;28;20453;-73
2023/09/13 04:02:09;;;;;;;;;;;;;;;18.41;100.00;101311.81;5044975;28;20448;-73
2023/09/13 04:04:34;;;;;;;;;;;;;;;18.39;100.00;101302.97;5043001;28;19956;-73
2023/09/13 04:07:00;;;;;;;;;;;;;;;18.36;100.00;101299.72;5047185;28;20038;-72
2023/09/13 04:09:25;;;;;;;;;;;;;;;18.35;100.00;101306.16;5045952;28;19920;-73
2023/09/13 04:11:50;;;;;;;;;;;;;;;18.33;100.00;101302.75;5041011;28;19924;-72
2023/09/13 04:14:15;;;;;;;;;;;;;;;18.33;100.00;101295.44;5044862;28;19935;-72
2023/09/13 04:16:40;;;;;;;;;;;;;;;18.33;100.00;101303.59;5047301;28;20025;-73
2023/09/13 04:19:06;;;;;;;;;;;;;;;18.31;100.00;101302.91;5049544;28;20314;-73
2023/09/13 04:21:31;;;;;;;;;;;;;;;18.29;100.00;101310.34;5034499;28;20383;-73
2023/09/13 04:23:58;;;;;;;;;;;;;;;18.28;100.00;101303.22;5048786;28;20181;-73
2023/09/13 04:26:23;;;;;;;;;;;;;;;18.33;100.00;101306.31;5045817;28;19925;-73
2023/09/13 04:28:49;;;;;;;;;;;;;;;18.31;100.00;101310.22;5068157;28;20355;-72
2023/09/13 04:31:14;;;;;;;;;;;;;;;18.28;100.00;101305.94;5047527;28;19931;-73
2023/09/13 04:33:52;;;;;;;;;;;;;;;18.27;100.00;101304.25;5053641;28;19924;-73
2023/09/13 04:36:17;;;;;;;;;;;;;;;18.26;100.00;101303.38;5048977;28;20449;-73
2023/09/13 04:38:42;;;;;;;;;;;;;;;18.22;100.00;101306.59;5049330;28;19924;-72
2023/09/13 04:41:13;;;;;;;;;;;;;;;18.14;100.00;101308.22;5050600;28;20358;-73
2023/09/13 04:43:38;;;;;;;;;;;;;;;18.11;100.00;101307.69;5051427;28;20054;-72
2023/09/13 04:46:03;;;;;;;;;;;;;;;18.07;100.00;101309.03;5044621;28;19921;-72
2023/09/13 04:48:28;;;;;;;;;;;;;;;18.04;100.00;101309.31;5049675;28;20437;-72
2023/09/13 04:50:54;;;;;;;;;;;;;;;18.00;100.00;101308.81;5049689;28;20011;-73
2023/09/13 04:53:19;;;;;;;;;;;;;;;18.03;100.00;101311.19;5036449;28;20007;-73
2023/09/13 04:55:44;;;;;;;;;;;;;;;18.03;100.00;101308.47;5052317;28;20478;-73
2023/09/13 04:58:10;;;;;;;;;;;;;;;17.97;100.00;101309.91;5030508;28;20379;-72
2023/09/13 05:00:35;;;;;;;;;;;;;;;17.92;100.00;101314.97;5048825;28;19916;-73
2023/09/13 05:03:00;;;;;;;;;;;;;;;17.98;100.00;101310.78;5052890;28;20366;-73
2023/09/13 05:05:25;;;;;;;;;;;;;;;18.03;100.00;101310.34;5047457;28;19924;-73
2023/09/13 05:07:51;;;;;;;;;;;;;;;18.06;100.00;101320.91;5051828;28;20416;-73
2023/09/13 05:10:16;;;;;;;;;;;;;;;18.00;100.00;101330.53;5045801;28;19920;-73
2023/09/13 05:12:41;;;;;;;;;;;;;;;18.01;100.00;101328.66;5044637;28;19925;-73
2023/09/13 05:15:06;;;;;;;;;;;;;;;18.03;100.00;101324.75;5046001;28;19974;-73
2023/09/13 05:17:32;;;;;;;;;;;;;;;17.98;100.00;101324.38;5050333;28;20361;-72
2023/09/13 05:19:57;;;;;;;;;;;;;;;17.89;100.00;101330.72;5046229;28;19939;-72
2023/09/13 05:22:22;;;;;;;;;;;;;;;17.87;100.00;101327.31;5049929;28;20412;-72
2023/09/13 05:24:47;;;;;;;;;;;;;;;17.88;100.00;101327.16;5053794;28;20053;-71
2023/09/13 05:27:13;;;;;;;;;;;;;;;17.91;100.00;101324.13;5047300;28;19924;-72
2023/09/13 05:29:38;;;;;;;;;;;;;;;17.92;100.00;101325.00;5051729;28;19960;-72
2023/09/13 05:32:03;;;;;;;;;;;;;;;17.91;100.00;101323.28;5050946;28;20046;-72
2023/09/13 05:34:28;;;;;;;;;;;;;;;17.86;100.00;101325.59;5051749;28;19927;-72
2023/09/13 05:36:54;;;;;;;;;;;;;;;17.88;100.00;101323.59;5054342;28;19919;-72
2023/09/13 05:39:20;;;;;;;;;;;;;;;17.94;100.00;101329.25;5048999;28;19925;-71
2023/09/13 05:41:45;;;;;;;;;;;;;;;17.95;100.00;101333.66;5053644;28;19920;-71
2023/09/13 05:44:10;;;;;;;;;;;;;;;17.96;100.00;101329.09;5052253;28;19921;-72
2023/09/13 05:46:35;;;;;;;;;;;;;;;18.03;100.00;101337.50;5043284;28;20374;-73
2023/09/13 05:49:00;;;;;;;;;;;;;;;18.05;100.00;101335.50;5046862;28;20378;-73
2023/09/13 05:51:26;;;;;;;;;;;;;;;18.07;100.00;101345.19;5048813;28;20484;-72
2023/09/13 05:53:51;;;;;;;;;;;;;;;18.18;100.00;101345.94;5046842;28;19926;-72
2023/09/13 05:56:16;;;;;;;;;;;;;;;18.26;100.00;101349.59;5048897;28;20496;-71
2023/09/13 05:58:43;;;;;;;;;;;;;;;18.26;100.00;101354.19;5032155;28;20436;-72
2023/09/13 06:01:08;;;;;;;;;;;;;;;18.37;100.00;101359.34;5049892;28;20375;-72
2023/09/13 06:03:33;;;;;;;;;;;;;;;18.46;100.00;101364.84;5049936;28;20050;-72
2023/09/13 06:05:59;;;;;;;;;;;;;;;18.48;100.00;101366.38;5049170;28;19927;-72
2023/09/13 06:08:24;;;;;;;;;;;;;;;18.43;100.00;101368.72;5047552;28;19921;-72
2023/09/13 06:10:49;;;;;;;;;;;;;;;18.38;100.00;101371.94;5051944;28;19920;-72
2023/09/13 06:13:15;;;;;;;;;;;;;;;18.36;100.00;101375.81;5045641;28;20698;-71
2023/09/13 06:15:40;;;;;;;;;;;;;;;18.38;100.00;101376.53;5052758;28;19920;-72
2023/09/13 06:18:05;;;;;;;;;;;;;;;18.35;100.00;101383.13;5053434;28;19963;-72
2023/09/13 06:20:31;;;;;;;;;;;;;;;18.41;100.00;101387.06;5045539;28;19939;-72
2023/09/13 06:22:56;;;;;;;;;;;;;;;18.34;100.00;101391.44;5050092;28;19932;-74
2023/09/13 06:25:21;;;;;;;;;;;;;;;18.43;100.00;101399.50;5049972;28;19972;-72
2023/09/13 06:27:46;;;;;;;;;;;;;;;18.42;100.00;101403.22;5047186;28;19924;-72
2023/09/13 06:30:14;;;;;;;;;;;;;;;18.45;100.00;101402.03;5046271;28;19932;-73
2023/09/13 06:32:40;;;;;;;;;;;;;;;18.46;100.00;101401.03;5043686;28;19920;-72
2023/09/13 06:35:05;;;;;;;;;;;;;;;18.46;100.00;101402.91;5044376;28;19947;-74
2023/09/13 06:37:30;;;;;;;;;;;;;;;18.50;100.00;101407.03;5041306;28;19921;-73
2023/09/13 06:39:55;;;;;;;;;;;;;;;18.55;100.00;101410.09;5049315;28;19924;-73
2023/09/13 06:42:21;;;;;;;;;;;;;;;18.64;100.00;101413.75;5045677;28;20116;-73
2023/09/13 06:44:46;;;;;;;;;;;;;;;18.65;100.00;101418.19;5046828;28;19947;-74
2023/09/13 06:47:11;;;;;;;;;;;;;;;18.67;100.00;101421.59;5045460;28;20614;-73
2023/09/13 06:49:36;;;;;;;;;;;;;;;18.62;100.00;101418.50;5044935;28;20711;-72
2023/09/13 06:52:02;;;;;;;;;;;;;;;18.62;100.00;101422.06;5041681;28;19963;-72
2023/09/13 06:54:27;;;;;;;;;;;;;;;18.70;100.00;101415.81;5046267;28;20019;-73
2023/09/13 06:56:52;;;;;;;;;;;;;;;18.74;100.00;101415.38;5045562;28;19960;-72
2023/09/13 06:59:19;;;;;;;;;;;;;;;18.72;100.00;101427.41;5041469;28;19948;-74
2023/09/13 07:01:44;;;;;;;;;;;;;;;18.78;100.00;101424.06;5044653;28;19986;-73
2023/09/13 07:04:10;;;;;;;;;;;;;;;18.88;100.00;101424.81;5048700;28;19924;-73
2023/09/13 07:06:35;;;;;;;;;;;;;;;18.95;100.00;101429.59;5043908;28;20042;-73
2023/09/13 07:09:00;;;;;;;;;;;;;;;19.08;100.00;101432.78;5042882;28;19973;-73
2023/09/13 07:11:25;;;;;;;;;;;;;;;19.22;100.00;101433.16;5043489;28;19936;-74
2023/09/13 07:13:51;;;;;;;;;;;;;;;19.28;100.00;101432.53;5047429;28;19917;-74
2023/09/13 07:16:16;;;;;;;;;;;;;;;19.30;100.00;101433.22;5045397;28;19920;-76
2023/09/13 07:18:41;;;;;;;;;;;;;;;19.39;100.00;101437.69;5044745;28;19927;-74
2023/09/13 07:21:06;;;;;;;;;;;;;;;19.43;100.00;101441.81;5052149;28;20370;-74
2023/09/13 07:23:33;;;;;;;;;;;;;;;19.30;100.00;101449.56;5048207;28;19931;-74
2023/09/13 07:25:59;;;;;;;;;;;;;;;19.08;100.00;101445.50;5045620;28;19932;-71
2023/09/13 07:28:24;;;;;;;;;;;;;;;18.93;100.00;101461.56;5048300;28;19930;-72
2023/09/13 07:30:49;;;;;;;;;;;;;;;18.86;100.00;101464.91;5042640;28;19999;-72
2023/09/13 07:33:15;;;;;;;;;;;;;;;18.73;100.00;101473.50;5042247;28;19924;-73
2023/09/13 07:35:40;;;;;;;;;;;;;;;18.67;100.00;101471.41;5046692;28;19920;-74
2023/09/13 07:38:05;;;;;;;;;;;;;;;18.38;100.00;101482.53;5042749;28;19928;-74
2023/09/13 07:40:30;;;;;;;;;;;;;;;18.24;100.00;101483.94;5045798;28;19963;-73
2023/09/13 07:42:55;;;;;;;;;;;;;;;18.32;100.00;101485.88;5044823;28;20015;-74
2023/09/13 07:45:21;;;;;;;;;;;;;;;18.32;100.00;101486.72;5048724;28;20050;-74
2023/09/13 07:47:46;;;;;;;;;;;;;;;18.46;100.00;101501.63;5040114;28;19920;-74
2023/09/13 07:50:26;;;;;;;;;;;;;;;18.65;100.00;101497.06;5033702;28;19968;-73
2023/09/13 07:52:51;;;;;;;;;;;;;;;18.36;100.00;101490.00;5025501;28;20537;-77
2023/09/13 07:55:17;;;;;;;;;;;;;;;18.26;100.00;101499.06;5046698;28;20393;-73
2023/09/13 07:57:42;;;;;;;;;;;;;;;17.96;100.00;101509.25;5043428;28;19912;-74
2023/09/13 08:00:07;;;;;;;;;;;;;;;17.85;100.00;101520.31;5042781;28;19928;-74
2023/09/13 08:02:32;;;;;;;;;;;;;;;17.79;100.00;101518.22;5045508;28;19928;-74
2023/09/13 08:04:58;;;;;;;;;;;;;;;17.75;100.00;101531.22;5041989;28;19967;-72
2023/09/13 08:07:23;;;;;;;;;;;;;;;17.72;100.00;101536.09;5047714;28;19968;-73
2023/09/13 08:09:48;;;;;;;;;;;;;;;17.51;100.00;101529.03;5042231;28;20011;-72
2023/09/13 08:12:14;;;;;;;;;;;;;;;17.59;100.00;101550.00;5044536;28;19924;-72
2023/09/13 08:14:39;;;;;;;;;;;;;;;17.59;100.00;101553.59;5037073;28;19931;-73
2023/09/13 08:17:04;;;;;;;;;;;;;;;17.77;100.00;101563.66;5042308;28;19920;-73
2023/09/13 08:19:29;;;;;;;;;;;;;;;17.78;100.00;101573.53;5047054;28;20432;-74
2023/09/13 08:21:54;;;;;;;;;;;;;;;17.72;100.00;101574.13;5045776;28;19928;-74
2023/09/13 08:24:20;;;;;;;;;;;;;;;17.74;100.00;101578.41;5044590;28;19925;-74
2023/09/13 08:26:45;;;;;;;;;;;;;;;17.72;100.00;101590.41;5044405;28;19921;-75
2023/09/13 08:29:10;;;;;;;;;;;;;;;17.75;100.00;101590.97;5043445;28;19928;-75
2023/09/13 08:31:35;;;;;;;;;;;;;;;17.96;100.00;101592.63;5043456;28;19921;-75
2023/09/13 08:34:01;;;;;;;;;;;;;;;18.01;100.00;101584.03;5030443;28;20003;-76
2023/09/13 08:36:26;;;;;;;;;;;;;;;17.97;100.00;101586.19;5048040;28;20378;-76
2023/09/13 08:38:51;;;;;;;;;;;;;;;18.02;100.00;101594.75;5043886;28;20401;-75
2023/09/13 08:41:17;;;;;;;;;;;;;;;17.98;100.00;101596.91;5043062;28;19921;-75
2023/09/13 08:43:42;;;;;;;;;;;;;;;18.04;100.00;101587.28;5042915;28;19964;-76
2023/09/13 08:46:07;;;;;;;;;;;;;;;18.20;100.00;101602.94;5048617;28;19943;-75
2023/09/13 08:48:33;;;;;;;;;;;;;;;18.21;100.00;101610.09;5052077;28;20275;-76
2023/09/13 08:50:58;;;;;;;;;;;;;;;18.40;100.00;101617.28;5040494;28;19920;-77
2023/09/13 08:53:23;;;;;;;;;;;;;;;18.36;100.00;101626.75;5046687;28;19952;-78
2023/09/13 08:55:48;;;;;;;;;;;;;;;18.34;100.00;101630.66;5047523;28;20462;-74
2023/09/13 08:58:14;;;;;;;;;;;;;;;18.31;100.00;101639.94;5046750;28;19927;-81
2023/09/13 09:00:39;;;;;;;;;;;;;;;18.36;100.00;101651.22;5047884;28;19966;-79
2023/09/13 09:03:05;;;;;;;;;;;;;;;18.34;100.00;101657.81;5053451;28;19963;-79
2023/09/13 09:05:30;;;;;;;;;;;;;;;18.43;100.00;101660.50;5043523;28;19920;-83
2023/09/13 09:07:56;;;;;;;;;;;;;;;18.50;100.00;101660.72;5049519;28;19920;-77
2023/09/13 09:10:21;;;;;;;;;;;;;;;18.53;100.00;101670.47;5048238;28;19920;-76
2023/09/13 09:12:47;;;;;;;;;;;;;;;18.47;100.00;101674.63;5033343;28;19920;-76
2023/09/13 09:15:12;;;;;;;;;;;;;;;18.45;100.00;101671.19;5051039;28;19920;-76
2023/09/13 09:17:38;;;;;;;;;;;;;;;18.48;100.00;101676.34;5046304;28;19925;-76
2023/09/13 09:20:03;;;;;;;;;;;;;;;18.43;100.00;101684.09;5052893;28;19927;-76
2023/09/13 09:22:29;;;;;;;;;;;;;;;18.31;100.00;101683.44;5042161;28;19927;-75
2023/09/13 09:24:55;;;;;;;;;;;;;;;18.21;100.00;101685.34;5028921;28;20426;-77
2023/09/13 09:27:21;;;;;;;;;;;;;;;18.24;100.00;101679.63;5040585;28;19975;-73
2023/09/13 09:29:46;;;;;;;;;;;;;;;18.41;100.00;101672.50;5046465;28;19924;-73
2023/09/13 09:32:12;;;;;;;;;;;;;;;18.56;100.00;101681.88;5051042;28;19920;-73
2023/09/13 09:34:39;;;;;;;;;;;;;;;18.59;100.00;101699.75;5030986;28;19913;-73
2023/09/13 09:37:07;;;;;;;;;;;;;;;18.43;100.00;101695.84;5031161;28;20023;-76
2023/09/13 09:39:35;;;;;;;;;;;;;;;18.49;100.00;101698.97;5030714;28;20040;-74
2023/09/13 09:42:00;;;;;;;;;;;;;;;18.43;100.00;101698.56;5043339;28;20320;-73
2023/09/13 09:44:29;;;;;;;;;;;;;;;18.44;100.00;101710.28;5028164;28;19932;-74
2023/09/13 09:46:54;;;;;;;;;;;;;;;18.50;100.00;101704.25;5049518;28;19927;-74
2023/09/13 09:49:19;;;;;;;;;;;;;;;18.58;100.00;101701.63;5049437;28;20647;-74
2023/09/13 09:51:44;;;;;;;;;;;;;;;19.00;100.00;101704.81;5033488;28;19920;-75
2023/09/13 09:54:10;;;;;;;;;;;;;;;19.42;100.00;101701.50;5047009;28;20314;-77
2023/09/13 09:56:35;;;;;;;;;;;;;;;19.70;100.00;101704.09;5053017;28;20713;-76
2023/09/13 09:59:01;;;;;;;;;;;;;;;19.85;100.00;101708.97;5046764;28;20298;-76
2023/09/13 10:01:26;;;;;;;;;;;;;;;20.08;100.00;101703.88;5028531;28;19960;-74
2023/09/13 10:03:54;;;;;;;;;;;;;;;20.22;100.00;101710.59;5043214;28;19975;-74
2023/09/13 10:06:20;;;;;;;;;;;;;;;20.06;100.00;101704.00;5050339;28;19921;-74
2023/09/13 10:08:46;;;;;;;;;;;;;;;20.23;100.00;101696.78;5025430;28;19943;-74
2023/09/13 10:11:12;;;;;;;;;;;;;;;20.49;100.00;101695.88;5049022;28;19943;-73
2023/09/13 10:13:39;;;;;;;;;;;;;;;20.50;100.00;101683.94;5026899;28;20018;-74
2023/09/13 10:16:05;;;;;;;;;;;;;;;20.73;100.00;101691.53;5043743;28;19920;-73
2023/09/13 10:18:32;;;;;;;;;;;;;;;20.96;100.00;101704.56;5050557;28;19933;-74
2023/09/13 10:20:57;;;;;;;;;;;;;;;21.01;100.00;101724.03;5030804;28;19924;-77
2023/09/13 10:23:41;;;;;;;;;;;;;;;21.10;100.00;101725.78;5049673;28;19931;-73
2023/09/13 10:26:08;;;;;;;;;;;;;;;20.90;100.00;101729.81;5045453;28;20301;-71
2023/09/13 10:28:35;;;;;;;;;;;;;;;20.71;100.00;101734.50;5045331;28;20366;-73
2023/09/13 10:31:01;;;;;;;;;;;;;;;20.49;100.00;101747.69;5044952;28;19935;-71
2023/09/13 10:33:27;;;;;;;;;;;;;;;20.96;100.00;101737.31;5045757;28;20374;-73
2023/09/13 10:35:54;;;;;;;;;;;;;;;21.31;100.00;101737.25;5039559;28;19924;-72
2023/09/13 10:38:24;;;;;;;;;;;;;;;21.75;100.00;101738.78;5041909;28;20307;-71
2023/09/13 10:40:50;;;;;;;;;;;;;;;21.75;100.00;101742.41;5045262;28;20641;-71
2023/09/13 10:43:16;;;;;;;;;;;;;;;22.16;100.00;101744.22;5049706;28;20047;-73
2023/09/13 10:45:41;;;;;;;;;;;;;;;22.19;100.00;101741.13;5039476;28;19924;-73
2023/09/13 10:48:06;;;;;;;;;;;;;;;22.37;100.00;101745.53;5045079;28;20347;-73
2023/09/13 10:50:31;;;;;;;;;;;;;;;22.31;100.00;101750.66;5047088;28;19927;-73
2023/09/13 10:52:57;;;;;;;;;;;;;;;22.42;100.00;101751.31;5036842;28;19931;-72
2023/09/13 10:55:22;;;;;;;;;;;;;;;22.06;100.00;101757.22;5041637;28;19955;-72
2023/09/13 10:57:47;;;;;;;;;;;;;;;21.68;100.00;101761.38;5044639;28;20047;-73
2023/09/13 11:00:13;;;;;;;;;;;;;;;21.35;100.00;101764.03;5042834;28;19927;-72
2023/09/13 11:02:42;;;;;;;;;;;;;;;21.16;100.00;101762.47;5044911;28;19954;-71
2023/09/13 11:05:08;;;;;;;;;;;;;;;20.98;100.00;101765.31;5046762;28;19924;-71
2023/09/13 11:07:37;;;;;;;;;;;;;;;20.89;100.00;101769.06;5043554;28;19925;-71
2023/09/13 11:10:03;;;;;;;;;;;;;;;21.10;100.00;101768.59;5039313;28;19924;-72
2023/09/13 11:12:28;;;;;;;;;;;;;;;21.30;100.00;101773.75;5025258;28;20294;-72
2023/09/13 11:14:55;;;;;;;;;;;;;;;21.34;100.00;101775.97;5041878;28;20425;-72
2023/09/13 11:17:37;;;;;;;;;;;;;;;21.34;100.00;101783.31;5045964;28;19927;-72
2023/09/13 11:20:21;;;;;;;;;;;;;;;21.08;100.00;101784.28;5028997;28;19917;-74
2023/09/13 11:23:08;;;;;;;;;;;;;;;21.11;100.00;101786.69;5045191;28;19951;-72
2023/09/13 11:25:37;;;;;;;;;;;;;;;20.98;100.00;101792.59;5041446;28;19924;-72
2023/09/13 11:28:03;;;;;;;;;;;;;;;20.81;100.00;101797.16;5047920;28;20186;-71
2023/09/13 11:30:47;;;;;;;;;;;;;;;20.82;100.00;101809.78;5044205;28;19974;-71
2023/09/13 11:33:13;;;;;;;;;;;;;;;20.76;100.00;101805.84;5043005;28;19920;-71
2023/09/13 11:35:38;;;;;;;;;;;;;;;20.86;100.00;101808.44;5043360;28;19928;-71
2023/09/13 11:38:04;;;;;;;;;;;;;;;21.11;100.00;101820.31;5045093;28;19920;-72
2023/09/13 11:40:29;;;;;;;;;;;;;;;21.15;100.00;101822.72;5037451;28;19920;-72
2023/09/13 11:42:55;;;;;;;;;;;;;;;20.96;100.00;101825.53;5038460;28;19987;-72
2023/09/13 11:45:20;;;;;;;;;;;;;;;20.93;100.00;101825.00;5045508;28;20011;-73
2023/09/13 11:47:45;;;;;;;;;;;;;;;20.81;100.00;101835.34;5043998;28;19925;-72
2023/09/13 11:50:12;;;;;;;;;;;;;;;20.81;100.00;101849.00;5044147;28;19920;-72
2023/09/13 11:52:56;;;;;;;;;;;;;;;20.86;100.00;101841.19;5045654;28;19920;-71
2023/09/13 11:55:27;;;;;;;;;;;;;;;20.80;100.00;101853.63;5049256;28;19975;-72
2023/09/13 11:57:52;;;;;;;;;;;;;;;20.94;100.00;101852.16;5042172;28;19970;-74
2023/09/13 12:00:22;;;;;;;;;;;;;;;;;;5050227;28;19929;-73
2023/09/13 12:02:47;;;;;;;;;;;;;;;21.84;100.00;101855.31;5042673;28;19960;-71
2023/09/13 12:05:12;;;;;;;;;;;;;;;22.43;100.00;101854.28;5032735;28;20564;-71
2023/09/13 12:07:37;;;;;;;;;;;;;;;22.64;90.06;101863.81;5037184;28;20591;-71
2023/09/13 12:10:03;;;;;;;;;;;;;;;22.37;90.56;101864.03;5038963;28;20976;-72
2023/09/13 12:12:34;;;;;;;;;;;;;;;22.66;90.99;101859.88;5036242;28;20404;-72
2023/09/13 12:15:03;;;;;;;;;;;;;;;24.63;80.26;101864.25;5050042;28;19921;-73
2023/09/13 12:17:37;;;;;;;;;;;;;;;25.08;72.43;101868.94;5041097;28;19927;-72
2023/09/13 12:20:05;;;;;;;;;;;;;;;24.52;68.23;101870.22;5049635;28;19921;-71
2023/09/13 12:22:31;;;;;;;;;;;;;;;23.91;71.89;101871.94;5048418;28;19932;-74